sensor_id;sensor_type;location;lat;lon;timestamp;temperature;humidity
39219;DHT22;24934;52.752;6.964;2023-09-18T00:00:48;17.00;99.90
39219;DHT22;24934;52.752;6.964;2023-09-18T00:03:21;17.00;99.90
39219;DHT22;24934;52.752;6.964;2023-09-18T00:05:50;17.00;99.90
39219;DHT22;24934;52.752;6.964;2023-09-18T00:08:16;17.20;99.90
39219;DHT22;24934;52.752;6.964;2023-09-18T00:10:42;17.20;99.90
39219;DHT22;24934;52.752;6.964;2023-09-18T00:13:08;17.20;99.90
39219;DHT22;24934;52.752;6.964;2023-09-18T00:15:34;17.30;99.90
39219;DHT22;24934;52.752;6.964;2023-09-18T00:17:59;17.30;99.90
39219;DHT22;24934;52.752;6.964;2023-09-18T00:20:26;17.30;99.90
39219;DHT22;24934;52.752;6.964;2023-09-18T00:22:55;17.30;99.90
39219;DHT22;24934;52.752;6.964;2023-09-18T00:25:22;17.30;99.90
39219;DHT22;24934;52.752;6.964;2023-09-18T00:27:48;17.40;99.90
39219;DHT22;24934;52.752;6.964;2023-09-18T00:30:14;17.40;99.90
39219;DHT22;24934;52.752;6.964;2023-09-18T00:32:40;17.30;99.90
39219;DHT22;24934;52.752;6.964;2023-09-18T00:35:06;17.30;99.90
39219;DHT22;24934;52.752;6.964;2023-09-18T00:37:31;17.30;99.90
39219;DHT22;24934;52.752;6.964;2023-09-18T00:39:57;17.30;99.90
39219;DHT22;24934;52.752;6.964;2023-09-18T00:42:23;17.30;99.90
39219;DHT22;24934;52.752;6.964;2023-09-18T00:44:49;17.30;99.90
39219;DHT22;24934;52.752;6.964;2023-09-18T00:47:15;17.30;99.90
39219;DHT22;24934;52.752;6.964;2023-09-18T00:49:44;17.30;99.90
39219;DHT22;24934;52.752;6.964;2023-09-18T00:52:10;17.30;99.90
39219;DHT22;24934;52.752;6.964;2023-09-18T00:54:37;17.40;99.90
39219;DHT22;24934;52.752;6.964;2023-09-18T00:57:04;17.30;99.90
39219;DHT22;24934;52.752;6.964;2023-09-18T00:59:30;17.30;99.90
39219;DHT22;24934;52.752;6.964;2023-09-18T01:01:56;17.30;99.90
39219;DHT22;24934;52.752;6.964;2023-09-18T01:04:22;17.30;99.90
39219;DHT22;24934;52.752;6.964;2023-09-18T01:06:50;17.30;99.90
39219;DHT22;24934;52.752;6.964;2023-09-18T01:09:17;17.30;99.90
39219;DHT22;24934;52.752;6.964;2023-09-18T01:12:19;17.30;99.90
39219;DHT22;24934;52.752;6.964;2023-09-18T01:15:02;17.20;99.90
39219;DHT22;24934;52.752;6.964;2023-09-18T01:17:35;17.20;99.90
39219;DHT22;24934;52.752;6.964;2023-09-18T01:20:04;17.20;99.90
39219;DHT22;24934;52.752;6.964;2023-09-18T01:22:31;17.20;99.90
39219;DHT22;24934;52.752;6.964;2023-09-18T01:24:57;17.20;99.90
39219;DHT22;24934;52.752;6.964;2023-09-18T01:27:23;17.20;99.90
39219;DHT22;24934;52.752;6.964;2023-09-18T01:29:49;17.20;99.90
39219;DHT22;24934;52.752;6.964;2023-09-18T01:32:15;17.10;99.90
39219;DHT22;24934;52.752;6.964;2023-09-18T01:34:48;17.20;99.90
39219;DHT22;24934;52.752;6.964;2023-09-18T01:37:16;17.20;99.90
39219;DHT22;24934;52.752;6.964;2023-09-18T01:39:43;17.20;99.90
39219;DHT22;24934;52.752;6.964;2023-09-18T01:42:11;17.10;99.90
39219;DHT22;24934;52.752;6.964;2023-09-18T01:44:37;17.10;99.90
39219;DHT22;24934;52.752;6.964;2023-09-18T01:47:05;17.10;99.90
39219;DHT22;24934;52.752;6.964;2023-09-18T01:49:36;17.10;99.90
39219;DHT22;24934;52.752;6.964;2023-09-18T01:52:03;17.10;99.90
39219;DHT22;24934;52.752;6.964;2023-09-18T01:54:29;17.10;99.90
39219;DHT22;24934;52.752;6.964;2023-09-18T01:56:55;17.10;99.90
39219;DHT22;24934;52.752;6.964;2023-09-18T01:59:22;17.10;99.90
39219;DHT22;24934;52.752;6.964;2023-09-18T02:01:49;17.10;99.90
39219;DHT22;24934;52.752;6.964;2023-09-18T02:04:15;17.20;99.90
39219;DHT22;24934;52.752;6.964;2023-09-18T02:06:41;17.20;99.90
39219;DHT22;24934;52.752;6.964;2023-09-18T02:09:07;17.10;99.90
39219;DHT22;24934;52.752;6.964;2023-09-18T02:11:40;17.20;99.90
39219;DHT22;24934;52.752;6.964;2023-09-18T02:14:06;17.20;99.90
39219;DHT22;24934;52.752;6.964;2023-09-18T02:16:37;17.20;99.90
39219;DHT22;24934;52.752;6.964;2023-09-18T02:19:03;17.20;99.90
39219;DHT22;24934;52.752;6.964;2023-09-18T02:21:29;17.20;99.90
39219;DHT22;24934;52.752;6.964;2023-09-18T02:23:55;17.20;99.90
39219;DHT22;24934;52.752;6.964;2023-09-18T02:26:22;17.20;99.90
39219;DHT22;24934;52.752;6.964;2023-09-18T02:28:49;17.20;99.90
39219;DHT22;24934;52.752;6.964;2023-09-18T02:31:14;17.20;99.90
39219;DHT22;24934;52.752;6.964;2023-09-18T02:33:40;17.30;99.90
39219;DHT22;24934;52.752;6.964;2023-09-18T02:36:06;17.20;99.90
39219;DHT22;24934;52.752;6.964;2023-09-18T02:38:33;17.20;99.90
39219;DHT22;24934;52.752;6.964;2023-09-18T02:40:59;17.20;99.90
39219;DHT22;24934;52.752;6.964;2023-09-18T02:43:25;17.20;99.90
39219;DHT22;24934;52.752;6.964;2023-09-18T02:45:51;17.20;99.90
39219;DHT22;24934;52.752;6.964;2023-09-18T02:48:17;17.20;99.90
39219;DHT22;24934;52.752;6.964;2023-09-18T02:50:43;17.20;99.90
39219;DHT22;24934;52.752;6.964;2023-09-18T02:53:17;17.20;99.90
39219;DHT22;24934;52.752;6.964;2023-09-18T02:55:44;17.20;99.90
39219;DHT22;24934;52.752;6.964;2023-09-18T02:58:10;17.20;99.90
39219;DHT22;24934;52.752;6.964;2023-09-18T03:00:41;17.20;99.90
39219;DHT22;24934;52.752;6.964;2023-09-18T03:03:07;17.20;99.90
39219;DHT22;24934;52.752;6.964;2023-09-18T03:05:33;17.20;99.90
39219;DHT22;24934;52.752;6.964;2023-09-18T03:07:59;17.20;99.90
39219;DHT22;24934;52.752;6.964;2023-09-18T03:10:24;17.30;99.90
39219;DHT22;24934;52.752;6.964;2023-09-18T03:12:50;17.30;99.90
39219;DHT22;24934;52.752;6.964;2023-09-18T03:15:16;17.30;99.90
39219;DHT22;24934;52.752;6.964;2023-09-18T03:17:41;17.40;99.90
39219;DHT22;24934;52.752;6.964;2023-09-18T03:20:08;17.40;99.90
39219;DHT22;24934;52.752;6.964;2023-09-18T03:22:34;17.40;99.90
39219;DHT22;24934;52.752;6.964;2023-09-18T03:25:00;17.40;99.90
39219;DHT22;24934;52.752;6.964;2023-09-18T03:27:25;17.50;99.90
39219;DHT22;24934;52.752;6.964;2023-09-18T03:29:57;17.50;99.90
39219;DHT22;24934;52.752;6.964;2023-09-18T03:32:23;17.50;99.90
39219;DHT22;24934;52.752;6.964;2023-09-18T03:34:52;17.50;99.90
39219;DHT22;24934;52.752;6.964;2023-09-18T03:37:18;17.50;99.90
39219;DHT22;24934;52.752;6.964;2023-09-18T03:39:44;17.50;99.90
39219;DHT22;24934;52.752;6.964;2023-09-18T03:42:09;17.50;99.90
39219;DHT22;24934;52.752;6.964;2023-09-18T03:44:38;17.50;99.90
39219;DHT22;24934;52.752;6.964;2023-09-18T03:47:04;17.50;99.90
39219;DHT22;24934;52.752;6.964;2023-09-18T03:49:32;17.50;99.90
39219;DHT22;24934;52.752;6.964;2023-09-18T03:51:58;17.50;99.90
39219;DHT22;24934;52.752;6.964;2023-09-18T03:54:23;17.50;99.90
39219;DHT22;24934;52.752;6.964;2023-09-18T03:56:49;17.50;99.90
39219;DHT22;24934;52.752;6.964;2023-09-18T03:59:15;17.50;99.90
39219;DHT22;24934;52.752;6.964;2023-09-18T04:01:40;17.50;99.90
39219;DHT22;24934;52.752;6.964;2023-09-18T04:04:06;17.50;99.90
39219;DHT22;24934;52.752;6.964;2023-09-18T04:06:42;17.50;99.90
39219;DHT22;24934;52.752;6.964;2023-09-18T04:09:08;17.60;99.90
39219;DHT22;24934;52.752;6.964;2023-09-18T04:11:34;17.60;99.90
39219;DHT22;24934;52.752;6.964;2023-09-18T04:14:00;17.60;99.90
39219;DHT22;24934;52.752;6.964;2023-09-18T04:16:26;17.60;99.90
39219;DHT22;24934;52.752;6.964;2023-09-18T04:19:02;17.60;99.90
39219;DHT22;24934;52.752;6.964;2023-09-18T04:21:28;17.60;99.90
39219;DHT22;24934;52.752;6.964;2023-09-18T04:23:55;17.60;99.90
39219;DHT22;24934;52.752;6.964;2023-09-18T04:26:23;17.60;99.90
39219;DHT22;24934;52.752;6.964;2023-09-18T04:28:49;17.60;99.90
39219;DHT22;24934;52.752;6.964;2023-09-18T04:31:15;17.60;99.90
39219;DHT22;24934;52.752;6.964;2023-09-18T04:33:41;17.60;99.90
39219;DHT22;24934;52.752;6.964;2023-09-18T04:36:07;17.60;99.90
39219;DHT22;24934;52.752;6.964;2023-09-18T04:38:33;17.60;99.90
39219;DHT22;24934;52.752;6.964;2023-09-18T04:41:01;17.60;99.90
39219;DHT22;24934;52.752;6.964;2023-09-18T04:43:26;17.70;99.90
39219;DHT22;24934;52.752;6.964;2023-09-18T04:45:54;17.70;99.90
39219;DHT22;24934;52.752;6.964;2023-09-18T04:48:20;17.60;99.90
39219;DHT22;24934;52.752;6.964;2023-09-18T04:50:45;17.60;99.90
39219;DHT22;24934;52.752;6.964;2023-09-18T04:53:12;17.70;99.90
39219;DHT22;24934;52.752;6.964;2023-09-18T04:55:37;17.70;99.90
39219;DHT22;24934;52.752;6.964;2023-09-18T04:58:03;17.70;99.90
39219;DHT22;24934;52.752;6.964;2023-09-18T05:00:30;17.70;99.90
39219;DHT22;24934;52.752;6.964;2023-09-18T05:02:57;17.70;99.90
39219;DHT22;24934;52.752;6.964;2023-09-18T05:05:26;17.70;99.90
39219;DHT22;24934;52.752;6.964;2023-09-18T05:07:51;17.80;99.90
39219;DHT22;24934;52.752;6.964;2023-09-18T05:10:17;17.80;99.90
39219;DHT22;24934;52.752;6.964;2023-09-18T05:12:43;17.80;99.90
39219;DHT22;24934;52.752;6.964;2023-09-18T05:15:09;17.80;99.90
39219;DHT22;24934;52.752;6.964;2023-09-18T05:17:48;17.80;99.90
39219;DHT22;24934;52.752;6.964;2023-09-18T05:20:19;17.90;99.90
39219;DHT22;24934;52.752;6.964;2023-09-18T05:22:45;17.90;99.90
39219;DHT22;24934;52.752;6.964;2023-09-18T05:25:11;17.90;99.90
39219;DHT22;24934;52.752;6.964;2023-09-18T05:27:37;17.90;99.90
39219;DHT22;24934;52.752;6.964;2023-09-18T05:30:17;18.00;99.90
39219;DHT22;24934;52.752;6.964;2023-09-18T05:32:43;18.00;99.90
39219;DHT22;24934;52.752;6.964;2023-09-18T05:35:10;18.00;99.90
39219;DHT22;24934;52.752;6.964;2023-09-18T05:37:38;18.00;99.90
39219;DHT22;24934;52.752;6.964;2023-09-18T05:40:09;18.00;99.90
39219;DHT22;24934;52.752;6.964;2023-09-18T05:42:40;18.10;99.90
39219;DHT22;24934;52.752;6.964;2023-09-18T05:45:09;18.10;99.90
39219;DHT22;24934;52.752;6.964;2023-09-18T05:47:34;18.10;99.90
39219;DHT22;24934;52.752;6.964;2023-09-18T05:50:09;18.10;99.90
39219;DHT22;24934;52.752;6.964;2023-09-18T05:52:35;18.20;99.90
39219;DHT22;24934;52.752;6.964;2023-09-18T05:55:04;18.30;99.90
39219;DHT22;24934;52.752;6.964;2023-09-18T05:57:29;18.40;99.90
39219;DHT22;24934;52.752;6.964;2023-09-18T05:59:55;18.50;99.90
39219;DHT22;24934;52.752;6.964;2023-09-18T06:02:22;18.50;99.90
39219;DHT22;24934;52.752;6.964;2023-09-18T06:04:48;18.60;99.90
39219;DHT22;24934;52.752;6.964;2023-09-18T06:07:14;18.70;99.90
39219;DHT22;24934;52.752;6.964;2023-09-18T06:09:40;18.70;99.90
39219;DHT22;24934;52.752;6.964;2023-09-18T06:12:06;18.70;99.90
39219;DHT22;24934;52.752;6.964;2023-09-18T06:14:32;18.80;99.90
39219;DHT22;24934;52.752;6.964;2023-09-18T06:17:00;18.80;99.90
39219;DHT22;24934;52.752;6.964;2023-09-18T06:19:26;18.80;99.90
39219;DHT22;24934;52.752;6.964;2023-09-18T06:21:52;18.90;99.90
39219;DHT22;24934;52.752;6.964;2023-09-18T06:24:17;18.80;99.90
39219;DHT22;24934;52.752;6.964;2023-09-18T06:26:43;18.80;99.90
39219;DHT22;24934;52.752;6.964;2023-09-18T06:29:09;18.70;99.90
39219;DHT22;24934;52.752;6.964;2023-09-18T06:31:35;18.70;99.90
39219;DHT22;24934;52.752;6.964;2023-09-18T06:34:01;18.60;99.90
39219;DHT22;24934;52.752;6.964;2023-09-18T06:36:26;18.50;99.90
39219;DHT22;24934;52.752;6.964;2023-09-18T06:38:52;18.50;99.90
39219;DHT22;24934;52.752;6.964;2023-09-18T06:41:18;18.40;99.90
39219;DHT22;24934;52.752;6.964;2023-09-18T06:43:44;18.40;99.90
39219;DHT22;24934;52.752;6.964;2023-09-18T06:46:10;18.40;99.90
39219;DHT22;24934;52.752;6.964;2023-09-18T06:48:35;18.40;99.90
39219;DHT22;24934;52.752;6.964;2023-09-18T06:51:01;18.40;99.90
39219;DHT22;24934;52.752;6.964;2023-09-18T06:53:27;18.40;99.90
39219;DHT22;24934;52.752;6.964;2023-09-18T06:55:55;18.40;99.90
39219;DHT22;24934;52.752;6.964;2023-09-18T06:58:21;18.40;99.90
39219;DHT22;24934;52.752;6.964;2023-09-18T07:00:47;18.40;99.90
39219;DHT22;24934;52.752;6.964;2023-09-18T07:03:15;18.50;99.90
39219;DHT22;24934;52.752;6.964;2023-09-18T07:05:41;18.50;99.90
39219;DHT22;24934;52.752;6.964;2023-09-18T07:08:08;18.50;99.90
39219;DHT22;24934;52.752;6.964;2023-09-18T07:10:37;18.50;99.90
39219;DHT22;24934;52.752;6.964;2023-09-18T07:13:03;18.60;99.90
39219;DHT22;24934;52.752;6.964;2023-09-18T07:15:29;18.60;99.90
39219;DHT22;24934;52.752;6.964;2023-09-18T07:17:54;18.60;99.90
39219;DHT22;24934;52.752;6.964;2023-09-18T07:20:20;18.70;99.90
39219;DHT22;24934;52.752;6.964;2023-09-18T07:22:48;18.70;99.90
39219;DHT22;24934;52.752;6.964;2023-09-18T07:25:14;18.80;99.90
39219;DHT22;24934;52.752;6.964;2023-09-18T07:27:40;18.90;99.90
39219;DHT22;24934;52.752;6.964;2023-09-18T07:30:10;19.00;99.90
39219;DHT22;24934;52.752;6.964;2023-09-18T07:32:36;19.10;99.90
39219;DHT22;24934;52.752;6.964;2023-09-18T07:35:02;19.10;99.90
39219;DHT22;24934;52.752;6.964;2023-09-18T07:37:30;19.20;99.90
39219;DHT22;24934;52.752;6.964;2023-09-18T07:39:56;19.20;99.90
39219;DHT22;24934;52.752;6.964;2023-09-18T07:42:27;19.30;99.90
39219;DHT22;24934;52.752;6.964;2023-09-18T07:44:53;19.30;99.90
39219;DHT22;24934;52.752;6.964;2023-09-18T07:47:20;19.40;99.90
39219;DHT22;24934;52.752;6.964;2023-09-18T07:49:46;19.50;99.90
39219;DHT22;24934;52.752;6.964;2023-09-18T07:52:12;19.50;99.90
39219;DHT22;24934;52.752;6.964;2023-09-18T07:54:37;19.60;99.90
39219;DHT22;24934;52.752;6.964;2023-09-18T07:57:03;19.60;99.90
39219;DHT22;24934;52.752;6.964;2023-09-18T07:59:29;19.70;99.90
39219;DHT22;24934;52.752;6.964;2023-09-18T08:01:54;19.70;99.90
39219;DHT22;24934;52.752;6.964;2023-09-18T08:04:20;19.70;99.90
39219;DHT22;24934;52.752;6.964;2023-09-18T08:06:46;19.70;99.90
39219;DHT22;24934;52.752;6.964;2023-09-18T08:09:12;19.70;99.90
39219;DHT22;24934;52.752;6.964;2023-09-18T08:11:41;19.70;99.90
39219;DHT22;24934;52.752;6.964;2023-09-18T08:14:08;19.60;99.90
39219;DHT22;24934;52.752;6.964;2023-09-18T08:16:35;19.70;99.90
39219;DHT22;24934;52.752;6.964;2023-09-18T08:19:04;19.60;99.90
39219;DHT22;24934;52.752;6.964;2023-09-18T08:21:29;19.60;99.90
39219;DHT22;24934;52.752;6.964;2023-09-18T08:23:55;19.60;99.90
39219;DHT22;24934;52.752;6.964;2023-09-18T08:26:21;19.60;99.90
39219;DHT22;24934;52.752;6.964;2023-09-18T08:28:47;19.60;99.90
39219;DHT22;24934;52.752;6.964;2023-09-18T08:31:13;19.60;99.90
39219;DHT22;24934;52.752;6.964;2023-09-18T08:33:42;19.70;99.90
39219;DHT22;24934;52.752;6.964;2023-09-18T08:36:08;19.70;99.90
39219;DHT22;24934;52.752;6.964;2023-09-18T08:38:33;19.80;99.90
39219;DHT22;24934;52.752;6.964;2023-09-18T08:40:59;19.90;99.90
39219;DHT22;24934;52.752;6.964;2023-09-18T08:43:25;20.00;99.90
39219;DHT22;24934;52.752;6.964;2023-09-18T08:45:53;20.10;99.90
39219;DHT22;24934;52.752;6.964;2023-09-18T08:48:20;20.20;99.90
39219;DHT22;24934;52.752;6.964;2023-09-18T08:50:47;20.20;99.90
39219;DHT22;24934;52.752;6.964;2023-09-18T08:53:14;20.30;99.90
39219;DHT22;24934;52.752;6.964;2023-09-18T08:55:40;20.30;99.90
39219;DHT22;24934;52.752;6.964;2023-09-18T08:58:07;20.40;99.90
39219;DHT22;24934;52.752;6.964;2023-09-18T09:00:33;20.40;99.90
39219;DHT22;24934;52.752;6.964;2023-09-18T09:03:01;20.60;99.90
39219;DHT22;24934;52.752;6.964;2023-09-18T09:05:26;20.80;99.90
39219;DHT22;24934;52.752;6.964;2023-09-18T09:07:52;20.90;99.90
39219;DHT22;24934;52.752;6.964;2023-09-18T09:10:18;20.90;99.90
39219;DHT22;24934;52.752;6.964;2023-09-18T09:15:13;21.00;99.90
39219;DHT22;24934;52.752;6.964;2023-09-18T09:17:39;20.90;99.90
39219;DHT22;24934;52.752;6.964;2023-09-18T09:20:09;20.90;99.90
39219;DHT22;24934;52.752;6.964;2023-09-18T09:22:38;20.90;99.90
39219;DHT22;24934;52.752;6.964;2023-09-18T09:25:24;20.90;99.90
39219;DHT22;24934;52.752;6.964;2023-09-18T09:27:54;21.00;99.90
39219;DHT22;24934;52.752;6.964;2023-09-18T09:30:25;21.00;99.90
39219;DHT22;24934;52.752;6.964;2023-09-18T09:32:53;21.10;99.90
39219;DHT22;24934;52.752;6.964;2023-09-18T09:35:27;21.00;99.90
39219;DHT22;24934;52.752;6.964;2023-09-18T09:38:10;21.10;99.90
39219;DHT22;24934;52.752;6.964;2023-09-18T09:40:38;21.00;99.90
39219;DHT22;24934;52.752;6.964;2023-09-18T09:43:08;21.00;99.90
39219;DHT22;24934;52.752;6.964;2023-09-18T09:45:33;21.10;99.90
39219;DHT22;24934;52.752;6.964;2023-09-18T09:48:05;21.10;99.90
39219;DHT22;24934;52.752;6.964;2023-09-18T09:50:32;21.30;99.90
39219;DHT22;24934;52.752;6.964;2023-09-18T09:52:59;21.30;99.90
39219;DHT22;24934;52.752;6.964;2023-09-18T09:55:32;21.70;99.90
39219;DHT22;24934;52.752;6.964;2023-09-18T09:58:03;22.00;99.90
39219;DHT22;24934;52.752;6.964;2023-09-18T10:00:43;22.40;99.90
39219;DHT22;24934;52.752;6.964;2023-09-18T10:03:16;22.50;99.90
39219;DHT22;24934;52.752;6.964;2023-09-18T10:05:44;22.40;99.90
39219;DHT22;24934;52.752;6.964;2023-09-18T10:08:12;22.20;99.90
39219;DHT22;24934;52.752;6.964;2023-09-18T10:10:43;22.10;99.90
39219;DHT22;24934;52.752;6.964;2023-09-18T10:13:18;22.10;99.90
39219;DHT22;24934;52.752;6.964;2023-09-18T10:15:46;22.10;99.90
39219;DHT22;24934;52.752;6.964;2023-09-18T10:18:44;22.30;99.90
39219;DHT22;24934;52.752;6.964;2023-09-18T10:22:05;22.50;99.90
39219;DHT22;24934;52.752;6.964;2023-09-18T10:24:19;23.10;99.90
39219;DHT22;24934;52.752;6.964;2023-09-18T10:26:57;22.90;99.90
39219;DHT22;24934;52.752;6.964;2023-09-18T10:29:24;22.80;99.90
39219;DHT22;24934;52.752;6.964;2023-09-18T10:31:51;22.60;99.90
39219;DHT22;24934;52.752;6.964;2023-09-18T10:34:19;22.50;99.90
39219;DHT22;24934;52.752;6.964;2023-09-18T10:36:50;23.10;99.90
39219;DHT22;24934;52.752;6.964;2023-09-18T10:39:15;23.20;99.90
39219;DHT22;24934;52.752;6.964;2023-09-18T10:41:52;23.10;99.90
39219;DHT22;24934;52.752;6.964;2023-09-18T10:44:19;23.30;99.90
39219;DHT22;24934;52.752;6.964;2023-09-18T10:46:48;23.00;99.90
39219;DHT22;24934;52.752;6.964;2023-09-18T10:49:18;22.80;99.90
39219;DHT22;24934;52.752;6.964;2023-09-18T10:51:46;23.00;99.90
39219;DHT22;24934;52.752;6.964;2023-09-18T10:54:17;23.20;99.90
39219;DHT22;24934;52.752;6.964;2023-09-18T10:56:45;23.70;99.90
39219;DHT22;24934;52.752;6.964;2023-09-18T10:59:13;24.30;99.90
39219;DHT22;24934;52.752;6.964;2023-09-18T11:01:39;24.30;99.90
39219;DHT22;24934;52.752;6.964;2023-09-18T11:04:06;24.30;99.90
39219;DHT22;24934;52.752;6.964;2023-09-18T11:07:20;23.90;99.90
39219;DHT22;24934;52.752;6.964;2023-09-18T11:09:48;23.80;99.90
39219;DHT22;24934;52.752;6.964;2023-09-18T11:12:16;24.00;99.90
39219;DHT22;24934;52.752;6.964;2023-09-18T11:14:57;24.30;99.90
39219;DHT22;24934;52.752;6.964;2023-09-18T11:17:31;24.40;99.90
39219;DHT22;24934;52.752;6.964;2023-09-18T11:20:08;24.50;99.90
39219;DHT22;24934;52.752;6.964;2023-09-18T11:22:35;24.70;99.90
39219;DHT22;24934;52.752;6.964;2023-09-18T11:25:36;25.00;99.90
39219;DHT22;24934;52.752;6.964;2023-09-18T11:28:23;25.20;99.90
39219;DHT22;24934;52.752;6.964;2023-09-18T11:30:54;25.30;99.90
39219;DHT22;24934;52.752;6.964;2023-09-18T11:33:41;25.50;99.90
39219;DHT22;24934;52.752;6.964;2023-09-18T11:36:14;24.90;99.90
39219;DHT22;24934;52.752;6.964;2023-09-18T11:38:54;24.80;99.90
39219;DHT22;24934;52.752;6.964;2023-09-18T11:41:43;24.60;99.90
39219;DHT22;24934;52.752;6.964;2023-09-18T11:46:45;24.90;99.90
39219;DHT22;24934;52.752;6.964;2023-09-18T11:49:11;25.10;99.90
39219;DHT22;24934;52.752;6.964;2023-09-18T11:51:41;24.80;99.90
39219;DHT22;24934;52.752;6.964;2023-09-18T11:54:08;24.90;99.90
39219;DHT22;24934;52.752;6.964;2023-09-18T11:56:34;25.50;99.90
39219;DHT22;24934;52.752;6.964;2023-09-18T11:59:00;25.90;99.90
39219;DHT22;24934;52.752;6.964;2023-09-18T12:01:30;26.00;99.90
39219;DHT22;24934;52.752;6.964;2023-09-18T12:04:03;26.10;99.90
39219;DHT22;24934;52.752;6.964;2023-09-18T12:06:35;26.10;99.90
39219;DHT22;24934;52.752;6.964;2023-09-18T12:09:01;26.20;99.90
39219;DHT22;24934;52.752;6.964;2023-09-18T12:11:27;26.50;99.90
39219;DHT22;24934;52.752;6.964;2023-09-18T12:13:53;26.10;99.90
39219;DHT22;24934;52.752;6.964;2023-09-18T12:16:18;25.90;99.90
39219;DHT22;24934;52.752;6.964;2023-09-18T12:18:48;26.00;99.90
39219;DHT22;24934;52.752;6.964;2023-09-18T12:21:16;26.20;99.90
39219;DHT22;24934;52.752;6.964;2023-09-18T12:23:43;26.20;99.90
39219;DHT22;24934;52.752;6.964;2023-09-18T12:26:13;25.80;99.90
39219;DHT22;24934;52.752;6.964;2023-09-18T12:28:40;25.40;99.90
39219;DHT22;24934;52.752;6.964;2023-09-18T12:31:09;25.10;99.90
39219;DHT22;24934;52.752;6.964;2023-09-18T12:33:36;25.20;99.90
39219;DHT22;24934;52.752;6.964;2023-09-18T12:36:07;25.20;99.90
39219;DHT22;24934;52.752;6.964;2023-09-18T12:38:33;25.30;99.90
39219;DHT22;24934;52.752;6.964;2023-09-18T12:41:00;25.60;99.90
39219;DHT22;24934;52.752;6.964;2023-09-18T12:43:39;26.10;99.90
39219;DHT22;24934;52.752;6.964;2023-09-18T12:46:08;26.00;99.90
39219;DHT22;24934;52.752;6.964;2023-09-18T12:48:38;25.70;99.90
39219;DHT22;24934;52.752;6.964;2023-09-18T12:51:07;25.70;99.90
39219;DHT22;24934;52.752;6.964;2023-09-18T12:53:33;25.60;99.90
39219;DHT22;24934;52.752;6.964;2023-09-18T12:56:12;25.70;99.90
39219;DHT22;24934;52.752;6.964;2023-09-18T12:58:39;25.90;99.90
39219;DHT22;24934;52.752;6.964;2023-09-18T13:01:11;25.70;99.90
39219;DHT22;24934;52.752;6.964;2023-09-18T13:03:44;25.50;99.90
39219;DHT22;24934;52.752;6.964;2023-09-18T13:06:18;25.70;99.90
39219;DHT22;24934;52.752;6.964;2023-09-18T13:08:44;25.20;99.90
39219;DHT22;24934;52.752;6.964;2023-09-18T13:11:10;25.10;99.90
39219;DHT22;24934;52.752;6.964;2023-09-18T13:13:42;25.30;99.90
39219;DHT22;24934;52.752;6.964;2023-09-18T13:16:09;25.50;99.90
39219;DHT22;24934;52.752;6.964;2023-09-18T13:18:35;25.60;99.90
39219;DHT22;24934;52.752;6.964;2023-09-18T13:21:12;25.40;99.90
39219;DHT22;24934;52.752;6.964;2023-09-18T13:23:39;25.10;99.90
39219;DHT22;24934;52.752;6.964;2023-09-18T13:26:06;24.60;99.90
39219;DHT22;24934;52.752;6.964;2023-09-18T13:28:33;24.20;99.90
39219;DHT22;24934;52.752;6.964;2023-09-18T13:31:01;24.10;99.90
39219;DHT22;24934;52.752;6.964;2023-09-18T13:33:30;23.90;99.90
39219;DHT22;24934;52.752;6.964;2023-09-18T13:35:56;23.80;99.90
39219;DHT22;24934;52.752;6.964;2023-09-18T13:38:22;23.90;99.90
39219;DHT22;24934;52.752;6.964;2023-09-18T13:40:47;23.60;99.90
39219;DHT22;24934;52.752;6.964;2023-09-18T13:43:16;23.40;99.90
39219;DHT22;24934;52.752;6.964;2023-09-18T13:45:44;23.50;99.90
39219;DHT22;24934;52.752;6.964;2023-09-18T13:48:11;24.10;99.90
39219;DHT22;24934;52.752;6.964;2023-09-18T13:50:37;24.60;99.90
39219;DHT22;24934;52.752;6.964;2023-09-18T13:53:04;24.90;99.90
39219;DHT22;24934;52.752;6.964;2023-09-18T13:55:31;25.10;99.90
39219;DHT22;24934;52.752;6.964;2023-09-18T13:57:57;25.20;99.90
39219;DHT22;24934;52.752;6.964;2023-09-18T14:00:23;25.40;99.90
39219;DHT22;24934;52.752;6.964;2023-09-18T14:02:48;25.40;99.90
39219;DHT22;24934;52.752;6.964;2023-09-18T14:05:14;25.30;99.90
39219;DHT22;24934;52.752;6.964;2023-09-18T14:07:40;25.50;99.90
39219;DHT22;24934;52.752;6.964;2023-09-18T14:10:10;25.50;99.90
39219;DHT22;24934;52.752;6.964;2023-09-18T14:12:43;25.50;99.90
39219;DHT22;24934;52.752;6.964;2023-09-18T14:15:09;25.40;99.90
39219;DHT22;24934;52.752;6.964;2023-09-18T14:17:35;25.50;99.90
39219;DHT22;24934;52.752;6.964;2023-09-18T14:20:02;25.50;99.90
39219;DHT22;24934;52.752;6.964;2023-09-18T14:22:35;25.30;99.90
39219;DHT22;24934;52.752;6.964;2023-09-18T14:25:01;25.40;99.90
39219;DHT22;24934;52.752;6.964;2023-09-18T14:27:34;25.40;99.90
39219;DHT22;24934;52.752;6.964;2023-09-18T14:30:00;25.40;99.90
39219;DHT22;24934;52.752;6.964;2023-09-18T14:32:29;25.40;99.90
39219;DHT22;24934;52.752;6.964;2023-09-18T14:34:55;25.10;99.90
39219;DHT22;24934;52.752;6.964;2023-09-18T14:37:20;24.60;99.90
39219;DHT22;24934;52.752;6.964;2023-09-18T14:39:46;24.40;99.90
39219;DHT22;24934;52.752;6.964;2023-09-18T14:42:12;24.10;99.90
39219;DHT22;24934;52.752;6.964;2023-09-18T14:44:38;24.00;99.90
39219;DHT22;24934;52.752;6.964;2023-09-18T14:47:12;24.10;99.90
39219;DHT22;24934;52.752;6.964;2023-09-18T14:49:38;24.20;99.90
39219;DHT22;24934;52.752;6.964;2023-09-18T14:52:04;24.40;99.90
39219;DHT22;24934;52.752;6.964;2023-09-18T14:54:30;24.50;99.90
39219;DHT22;24934;52.752;6.964;2023-09-18T14:56:56;24.60;99.90
39219;DHT22;24934;52.752;6.964;2023-09-18T14:59:27;24.70;99.90
39219;DHT22;24934;52.752;6.964;2023-09-18T15:01:53;24.70;99.90
39219;DHT22;24934;52.752;6.964;2023-09-18T15:04:18;24.60;99.90
39219;DHT22;24934;52.752;6.964;2023-09-18T15:06:44;24.60;99.90
39219;DHT22;24934;52.752;6.964;2023-09-18T15:09:10;24.50;99.90
39219;DHT22;24934;52.752;6.964;2023-09-18T15:11:35;24.60;99.90
39219;DHT22;24934;52.752;6.964;2023-09-18T15:14:02;24.70;99.90
39219;DHT22;24934;52.752;6.964;2023-09-18T15:16:30;24.70;99.90
39219;DHT22;24934;52.752;6.964;2023-09-18T15:18:56;24.60;99.90
39219;DHT22;24934;52.752;6.964;2023-09-18T15:21:25;24.40;99.90
39219;DHT22;24934;52.752;6.964;2023-09-18T15:23:51;24.30;99.90
39219;DHT22;24934;52.752;6.964;2023-09-18T15:26:17;24.40;99.90
39219;DHT22;24934;52.752;6.964;2023-09-18T15:28:43;24.50;99.90
39219;DHT22;24934;52.752;6.964;2023-09-18T15:31:08;24.70;99.90
39219;DHT22;24934;52.752;6.964;2023-09-18T15:33:34;24.70;99.90
39219;DHT22;24934;52.752;6.964;2023-09-18T15:36:00;24.70;99.90
39219;DHT22;24934;52.752;6.964;2023-09-18T15:38:25;24.70;99.90
39219;DHT22;24934;52.752;6.964;2023-09-18T15:40:52;24.70;99.90